Time;durP1;ratioP1;P1;durP2;ratioP2;P2;SDS_P1;SDS_P2;PMS_P1;PMS_P2;Temp;Humidity;BMP_temperature;BMP_pressure;BME280_temperature;BME280_humidity;BME280_pressure;Samples;Min_cycle;Max_cycle;Signal;HPM_P1;HPM_P2
2023/02/08 00:00:21;;;;;;;23.70;16.00;;;-2.00;99.90;;;;;;4968855;28;20242;-69
2023/02/08 00:02:46;;;;;;;21.00;13.63;;;-2.00;99.90;;;;;;4971818;28;20443;-69
2023/02/08 00:05:12;;;;;;;14.90;12.70;;;-2.00;99.90;;;;;;4972335;28;20467;-69
2023/02/08 00:07:37;;;;;;;18.40;13.63;;;-2.10;99.90;;;;;;4969760;28;20194;-69
2023/02/08 00:10:05;;;;;;;17.00;12.13;;;-2.10;99.90;;;;;;4970138;28;20236;-69
2023/02/08 00:12:31;;;;;;;17.97;13.87;;;-2.10;99.90;;;;;;4970836;28;20198;-69
2023/02/08 00:14:57;;;;;;;18.53;13.17;;;-2.10;99.90;;;;;;4970365;28;20443;-69
2023/02/08 00:17:22;;;;;;;15.50;13.00;;;-2.20;99.90;;;;;;4971467;28;20448;-68
2023/02/08 00:19:48;;;;;;;18.40;12.33;;;-2.30;99.90;;;;;;4970658;28;20242;-68
2023/02/08 00:22:13;;;;;;;17.70;12.57;;;-2.30;99.90;;;;;;4971756;28;20670;-69
2023/02/08 00:24:39;;;;;;;19.00;13.40;;;-2.40;99.90;;;;;;4970414;28;20234;-69
2023/02/08 00:27:04;;;;;;;18.73;12.30;;;-2.30;99.90;;;;;;4971590;28;20246;-69
2023/02/08 00:29:30;;;;;;;18.77;13.00;;;-2.40;99.90;;;;;;4969439;28;20200;-68
2023/02/08 00:31:55;;;;;;;17.70;11.17;;;-2.30;99.90;;;;;;4972028;28;20182;-69
2023/02/08 00:34:21;;;;;;;13.20;9.97;;;-2.40;99.90;;;;;;4969201;28;20176;-69
2023/02/08 00:36:46;;;;;;;14.13;10.43;;;-2.40;99.90;;;;;;4971690;28;20670;-68
2023/02/08 00:39:12;;;;;;;11.83;10.57;;;-2.40;99.90;;;;;;4972228;28;20250;-69
2023/02/08 00:41:37;;;;;;;12.00;9.90;;;-2.40;99.90;;;;;;4975075;28;20180;-69
2023/02/08 00:44:03;;;;;;;14.20;10.63;;;-2.40;99.90;;;;;;4971838;28;20599;-69
2023/02/08 00:46:28;;;;;;;15.30;9.73;;;-2.40;99.90;;;;;;4970143;28;20204;-70
2023/02/08 00:48:54;;;;;;;21.80;10.43;;;-2.40;99.90;;;;;;4974407;28;20204;-69
2023/02/08 00:51:19;;;;;;;15.30;10.97;;;-2.40;99.90;;;;;;4972196;28;20176;-69
2023/02/08 00:53:45;;;;;;;16.10;10.93;;;-2.40;99.90;;;;;;4963594;28;20634;-69
2023/02/08 00:56:12;;;;;;;13.00;10.17;;;-2.40;99.90;;;;;;4968880;28;20296;-69
2023/02/08 00:58:38;;;;;;;13.80;11.13;;;-2.40;99.90;;;;;;4963746;28;20199;-69
2023/02/08 01:01:05;;;;;;;17.93;11.90;;;-2.40;99.90;;;;;;4972346;28;20493;-69
2023/02/08 01:03:37;;;;;;;14.90;11.60;;;-2.40;99.90;;;;;;4970745;28;20442;-69
2023/02/08 01:06:05;;;;;;;15.53;10.70;;;-2.40;99.90;;;;;;4972002;28;20549;-69
2023/02/08 01:08:30;;;;;;;12.50;9.60;;;-2.30;99.90;;;;;;4974873;28;21007;-69
2023/02/08 01:11:10;;;;;;;15.13;11.70;;;-2.40;99.90;;;;;;4973838;28;20436;-70
2023/02/08 01:13:36;;;;;;;19.10;11.90;;;-2.50;99.90;;;;;;4974945;28;20183;-69
2023/02/08 01:16:08;;;;;;;16.27;11.27;;;-2.50;99.90;;;;;;4974783;28;20466;-69
2023/02/08 01:18:33;;;;;;;13.90;9.97;;;-2.50;99.90;;;;;;4978354;28;20454;-69
2023/02/08 01:21:07;;;;;;;16.27;11.10;;;-2.50;99.90;;;;;;4975677;28;20449;-69
2023/02/08 01:23:32;;;;;;;17.80;11.93;;;-2.60;99.90;;;;;;4976163;28;20265;-69
2023/02/08 01:25:58;;;;;;;14.80;10.97;;;-2.60;99.90;;;;;;4973921;28;20545;-69
2023/02/08 01:28:23;;;;;;;16.53;10.97;;;-2.60;99.90;;;;;;4975181;28;20227;-69
2023/02/08 01:30:48;;;;;;;14.77;11.60;;;-2.60;99.90;;;;;;4974635;28;20194;-68
2023/02/08 01:33:14;;;;;;;15.27;11.97;;;-2.70;99.90;;;;;;4973432;28;20184;-68
2023/02/08 01:35:40;;;;;;;18.23;11.67;;;-2.70;99.90;;;;;;4974528;28;20643;-68
2023/02/08 01:38:05;;;;;;;15.70;11.13;;;-2.70;99.90;;;;;;4974046;28;20211;-69
2023/02/08 01:40:31;;;;;;;15.93;12.03;;;-2.70;99.90;;;;;;4975521;28;20698;-68
2023/02/08 01:42:56;;;;;;;13.93;10.80;;;-2.70;99.90;;;;;;4974009;28;20207;-69
2023/02/08 01:45:30;;;;;;;20.30;12.53;;;-2.60;99.90;;;;;;4974620;28;20215;-68
2023/02/08 01:48:05;;;;;;;15.73;11.70;;;-2.60;99.90;;;;;;4974695;28;20546;-68
2023/02/08 01:50:35;;;;;;;15.50;11.50;;;-2.70;99.90;;;;;;4973330;28;21068;-69
2023/02/08 01:53:02;;;;;;;15.80;12.40;;;-2.70;99.90;;;;;;4978667;28;20479;-69
2023/02/08 01:55:33;;;;;;;14.60;11.00;;;-2.80;99.90;;;;;;4972859;28;20466;-69
2023/02/08 01:58:02;;;;;;;17.97;11.40;;;-2.90;99.90;;;;;;4975245;28;20439;-68
2023/02/08 02:00:28;;;;;;;18.40;13.30;;;-2.90;99.90;;;;;;4973954;28;20462;-68
2023/02/08 02:02:55;;;;;;;18.53;12.60;;;-2.90;99.90;;;;;;4976453;28;20435;-69
2023/02/08 02:05:23;;;;;;;16.13;12.50;;;-2.90;99.90;;;;;;4980514;28;20226;-69
2023/02/08 02:07:51;;;;;;;15.97;10.37;;;-2.90;99.90;;;;;;4974728;28;21003;-68
2023/02/08 02:10:33;;;;;;;18.50;13.17;;;-2.90;99.90;;;;;;4972101;28;20440;-69
2023/02/08 02:13:24;;;;;;;16.10;11.30;;;-2.90;99.90;;;;;;4974745;28;20486;-68
2023/02/08 02:15:51;;;;;;;18.60;13.23;;;-3.00;99.90;;;;;;4973991;28;20447;-68
2023/02/08 02:18:27;;;;;;;17.53;13.43;;;-3.10;99.90;;;;;;4972085;28;20494;-68
2023/02/08 02:21:30;;;;;;;16.20;12.83;;;-3.10;99.90;;;;;;4974187;28;20435;-68
2023/02/08 02:24:38;;;;;;;19.10;12.97;;;-3.10;99.90;;;;;;4975563;28;20505;-68
2023/02/08 02:27:25;;;;;;;12.37;11.07;;;-3.10;99.90;;;;;;4974644;28;20533;-68
2023/02/08 02:30:34;;;;;;;13.33;9.83;;;-3.10;99.90;;;;;;4973375;28;20470;-68
2023/02/08 02:33:39;;;;;;;15.87;12.20;;;-3.20;99.90;;;;;;4946621;29;20448;-69
2023/02/08 02:36:17;;;;;;;20.50;12.80;;;-3.10;99.90;;;;;;4969337;28;20439;-69
2023/02/08 02:39:21;;;;;;;14.70;11.07;;;-3.10;99.90;;;;;;4972450;28;21152;-68
2023/02/08 02:45:19;;;;;;;13.90;10.67;;;-3.00;99.90;;;;;;4972645;28;20486;-69
2023/02/08 02:48:13;;;;;;;14.23;9.67;;;-3.10;99.90;;;;;;4974211;28;20462;-69
2023/02/08 02:50:43;;;;;;;17.47;12.50;;;-3.10;99.90;;;;;;4972205;28;20560;-68
2023/02/08 02:53:19;;;;;;;18.30;12.20;;;-3.10;99.90;;;;;;4970289;28;20431;-69
2023/02/08 02:55:50;;;;;;;13.43;11.00;;;-3.20;99.90;;;;;;4970221;28;20491;-68
2023/02/08 02:58:18;;;;;;;16.37;12.03;;;-3.20;99.90;;;;;;4973927;28;20968;-69
2023/02/08 03:00:54;;;;;;;15.23;10.73;;;-3.20;99.90;;;;;;4972695;28;20490;-68
2023/02/08 03:03:22;;;;;;;15.97;12.07;;;-3.20;99.90;;;;;;4971600;28;20446;-69
2023/02/08 03:05:50;;;;;;;20.90;11.37;;;-3.20;99.90;;;;;;4970998;28;20466;-69
2023/02/08 03:08:32;;;;;;;16.27;9.90;;;-3.30;99.90;;;;;;4961017;28;20602;-69
2023/02/08 03:11:27;;;;;;;16.20;10.60;;;-3.30;99.90;;;;;;4971913;28;20940;-68
2023/02/08 03:14:22;;;;;;;14.43;11.30;;;-3.40;99.90;;;;;;4973657;28;20443;-69
2023/02/08 03:17:12;;;;;;;14.93;10.57;;;-3.40;99.90;;;;;;4975458;28;20518;-68
2023/02/08 03:20:01;;;;;;;14.20;10.10;;;-3.40;99.90;;;;;;4976989;28;20459;-69
2023/02/08 03:22:48;;;;;;;13.47;11.00;;;-3.40;99.90;;;;;;4973350;28;20467;-68
2023/02/08 03:25:31;;;;;;;15.00;9.63;;;-3.40;99.90;;;;;;4969340;28;20547;-69
2023/02/08 03:28:21;;;;;;;16.10;10.50;;;-3.40;99.90;;;;;;4969571;28;20939;-69
2023/02/08 03:31:11;;;;;;;13.93;10.33;;;-3.50;99.90;;;;;;4971526;28;20442;-69
2023/02/08 03:33:54;;;;;;;17.23;10.53;;;-3.50;99.90;;;;;;4972795;28;20759;-68
2023/02/08 03:36:35;;;;;;;15.30;12.10;;;-3.50;99.90;;;;;;4965489;28;20586;-69
2023/02/08 03:39:05;;;;;;;20.23;10.57;;;-3.40;99.90;;;;;;4971835;28;21190;-68
2023/02/08 03:41:35;;;;;;;16.97;10.97;;;-3.40;99.90;;;;;;4972332;28;20443;-69
2023/02/08 03:44:17;;;;;;;13.13;9.70;;;-3.50;99.90;;;;;;4973061;28;20474;-68
2023/02/08 03:46:50;;;;;;;11.20;9.30;;;-3.50;99.90;;;;;;4971199;28;20514;-68
2023/02/08 03:49:20;;;;;;;16.20;10.47;;;-3.50;99.90;;;;;;4971995;28;20839;-69
2023/02/08 03:51:46;;;;;;;13.80;10.03;;;-3.50;99.90;;;;;;4972531;28;20428;-69
2023/02/08 03:54:21;;;;;;;16.73;10.50;;;-3.60;99.90;;;;;;4972464;28;20502;-69
2023/02/08 03:57:15;;;;;;;18.47;11.10;;;-3.60;99.90;;;;;;4971046;28;20458;-68
2023/02/08 03:59:42;;;;;;;13.10;9.87;;;-3.60;99.90;;;;;;4971948;28;20466;-68
2023/02/08 04:02:12;;;;;;;13.50;10.20;;;-3.60;99.90;;;;;;4973189;28;20436;-68
2023/02/08 04:04:46;;;;;;;17.87;11.67;;;-3.70;99.90;;;;;;4972367;28;20465;-68
2023/02/08 04:07:12;;;;;;;13.47;10.27;;;-3.60;99.90;;;;;;4971013;28;20502;-69
2023/02/08 04:09:37;;;;;;;14.63;9.70;;;-3.60;99.90;;;;;;4969106;28;20472;-69
2023/02/08 04:12:03;;;;;;;11.90;9.20;;;-3.60;99.90;;;;;;4970532;28;20964;-68
2023/02/08 04:14:29;;;;;;;18.40;11.00;;;-3.60;99.90;;;;;;4972823;28;20181;-68
2023/02/08 04:16:55;;;;;;;21.57;12.07;;;-3.60;99.90;;;;;;4969374;28;20470;-68
2023/02/08 04:19:20;;;;;;;17.43;11.10;;;-3.70;99.90;;;;;;4969765;28;20226;-69
2023/02/08 04:21:46;;;;;;;14.83;10.43;;;-3.70;99.90;;;;;;4971446;28;20653;-69
2023/02/08 04:24:12;;;;;;;15.93;10.43;;;-3.70;99.90;;;;;;4971949;28;20184;-68
2023/02/08 04:26:37;;;;;;;14.80;10.10;;;-3.70;99.90;;;;;;4969514;28;20239;-68
2023/02/08 04:29:02;;;;;;;14.23;10.30;;;-3.70;99.90;;;;;;4970811;28;20196;-68
2023/02/08 04:31:28;;;;;;;14.57;9.80;;;-3.70;99.90;;;;;;4966908;28;20861;-68
2023/02/08 04:33:54;;;;;;;16.37;12.73;;;-3.70;99.90;;;;;;4969911;28;20184;-68
2023/02/08 04:36:19;;;;;;;13.90;11.03;;;-3.70;99.90;;;;;;4969566;28;20676;-69
2023/02/08 04:38:45;;;;;;;18.03;11.53;;;-3.70;99.90;;;;;;4969685;28;20228;-68
2023/02/08 04:41:10;;;;;;;14.40;10.37;;;-3.70;99.90;;;;;;4971362;28;20172;-68
2023/02/08 04:43:36;;;;;;;14.60;10.13;;;-3.70;99.90;;;;;;4970608;28;20187;-68
2023/02/08 04:46:02;;;;;;;16.40;11.93;;;-3.80;99.90;;;;;;4970875;28;20224;-68
2023/02/08 04:48:28;;;;;;;15.90;10.17;;;-3.80;99.90;;;;;;4961167;28;21490;-68
2023/02/08 04:50:55;;;;;;;15.43;9.87;;;-3.80;99.90;;;;;;4972605;28;20446;-68
2023/02/08 04:53:21;;;;;;;15.60;10.90;;;-3.80;99.90;;;;;;4971116;28;20673;-68
2023/02/08 04:55:47;;;;;;;14.67;10.33;;;-3.80;99.90;;;;;;4971731;28;20459;-68
2023/02/08 04:58:12;;;;;;;16.60;10.17;;;-3.80;99.90;;;;;;4971820;28;21052;-68
2023/02/08 05:00:38;;;;;;;16.80;10.80;;;-3.80;99.90;;;;;;4972477;28;20658;-68
2023/02/08 05:03:03;;;;;;;14.53;10.77;;;-3.80;99.90;;;;;;4972278;28;20231;-68
2023/02/08 05:05:29;;;;;;;14.67;9.90;;;-3.90;99.90;;;;;;4975615;28;20208;-68
2023/02/08 05:07:55;;;;;;;14.47;10.57;;;-4.00;99.90;;;;;;4972720;28;20234;-68
2023/02/08 05:10:21;;;;;;;16.70;10.37;;;-4.10;99.90;;;;;;4971664;28;20184;-67
2023/02/08 05:12:46;;;;;;;15.43;10.50;;;-4.10;99.90;;;;;;4971522;28;20713;-68
2023/02/08 05:15:12;;;;;;;18.80;10.97;;;-4.10;99.90;;;;;;4973790;28;20435;-68
2023/02/08 05:17:38;;;;;;;13.40;10.20;;;-4.10;99.90;;;;;;4971478;28;20188;-68
2023/02/08 05:20:05;;;;;;;13.43;9.63;;;-4.10;99.90;;;;;;4964249;28;20222;-68
2023/02/08 05:22:31;;;;;;;11.47;9.90;;;-4.10;99.90;;;;;;4972781;28;20176;-68
2023/02/08 05:24:57;;;;;;;17.70;10.97;;;-4.10;99.90;;;;;;4968786;28;20466;-68
2023/02/08 05:27:22;;;;;;;13.57;9.77;;;-4.10;99.90;;;;;;4972136;28;20938;-68
2023/02/08 05:29:48;;;;;;;15.43;11.60;;;-4.10;99.90;;;;;;4968697;28;20265;-68
2023/02/08 05:32:14;;;;;;;18.07;11.60;;;-4.10;99.90;;;;;;4964396;28;20196;-68
2023/02/08 05:34:39;;;;;;;17.03;11.20;;;-4.10;99.90;;;;;;4964672;28;20191;-68
2023/02/08 05:37:05;;;;;;;15.50;11.23;;;-4.10;99.90;;;;;;4971608;28;20551;-68
2023/02/08 05:39:30;;;;;;;17.37;10.50;;;-4.20;99.90;;;;;;4972243;28;20557;-68
2023/02/08 05:41:56;;;;;;;13.70;10.63;;;-4.20;99.90;;;;;;4970898;28;20718;-68
2023/02/08 05:44:21;;;;;;;21.90;12.10;;;-4.20;99.90;;;;;;4971469;28;20184;-68
2023/02/08 05:46:47;;;;;;;15.87;10.30;;;-4.20;99.90;;;;;;4972469;28;20208;-68
2023/02/08 05:49:12;;;;;;;11.43;9.73;;;-4.20;99.90;;;;;;4969966;28;20201;-68
2023/02/08 05:51:38;;;;;;;15.07;11.47;;;-4.30;99.90;;;;;;4971230;28;20304;-68
2023/02/08 05:54:04;;;;;;;15.60;9.73;;;-4.30;99.90;;;;;;4972280;28;20187;-68
2023/02/08 05:56:29;;;;;;;24.33;13.63;;;-4.30;99.90;;;;;;4978174;28;20199;-68
2023/02/08 05:58:55;;;;;;;21.20;12.53;;;-4.30;99.90;;;;;;4971412;28;20214;-68
2023/02/08 06:01:21;;;;;;;20.20;13.30;;;-4.30;99.90;;;;;;4973120;28;20207;-67
2023/02/08 06:03:46;;;;;;;19.90;13.27;;;-4.20;99.90;;;;;;4973393;28;20861;-67
2023/02/08 06:06:12;;;;;;;22.50;13.53;;;-4.20;99.90;;;;;;4977101;28;20208;-67
2023/02/08 06:08:38;;;;;;;16.77;11.93;;;-4.20;99.90;;;;;;4975039;28;20200;-67
2023/02/08 06:11:05;;;;;;;15.63;10.67;;;-4.20;99.90;;;;;;4973402;28;20227;-67
2023/02/08 06:13:31;;;;;;;14.50;10.30;;;-4.10;99.90;;;;;;4975590;28;20799;-68
2023/02/08 06:15:57;;;;;;;16.10;10.80;;;-4.10;99.90;;;;;;4966888;28;20436;-68
2023/02/08 06:18:23;;;;;;;18.30;12.10;;;-4.10;99.90;;;;;;4974297;28;20466;-67
2023/02/08 06:20:52;;;;;;;15.00;12.40;;;-4.10;99.90;;;;;;4974139;28;20184;-67
2023/02/08 06:23:17;;;;;;;15.20;12.07;;;-4.20;99.90;;;;;;4972359;28;20172;-67
2023/02/08 06:25:43;;;;;;;16.50;11.13;;;-4.20;99.90;;;;;;4973420;28;20475;-67
2023/02/08 06:28:09;;;;;;;18.87;11.83;;;-4.20;99.90;;;;;;4972406;28;20196;-68
2023/02/08 06:30:35;;;;;;;13.73;10.77;;;-4.20;99.90;;;;;;4973755;28;20176;-68
2023/02/08 06:33:01;;;;;;;17.23;11.43;;;-4.20;99.90;;;;;;4973534;28;20483;-67
2023/02/08 06:35:26;;;;;;;16.73;11.40;;;-4.20;99.90;;;;;;4972728;28;20505;-67
2023/02/08 06:37:53;;;;;;;14.30;11.03;;;-4.20;99.90;;;;;;4971530;28;20242;-67
2023/02/08 06:40:18;;;;;;;18.83;13.30;;;-4.20;99.90;;;;;;4972666;28;20540;-67
2023/02/08 06:42:46;;;;;;;14.70;10.07;;;-4.20;99.90;;;;;;4973378;28;20439;-67
2023/02/08 06:45:11;;;;;;;16.77;12.13;;;-4.20;99.90;;;;;;4971360;28;20572;-67
2023/02/08 06:47:37;;;;;;;17.63;12.37;;;-4.20;99.90;;;;;;4973247;28;20428;-67
2023/02/08 06:50:03;;;;;;;13.37;10.73;;;-4.20;99.90;;;;;;4973597;28;20670;-67
2023/02/08 06:52:28;;;;;;;14.87;11.00;;;-4.10;99.90;;;;;;4972409;28;20176;-67
2023/02/08 06:54:54;;;;;;;18.43;12.53;;;-4.20;99.90;;;;;;4971784;28;20195;-67
2023/02/08 06:57:19;;;;;;;18.63;11.23;;;-4.20;99.90;;;;;;4971626;28;20239;-69
2023/02/08 06:59:45;;;;;;;17.53;11.37;;;-4.20;99.90;;;;;;4972682;28;20250;-69
2023/02/08 07:02:16;;;;;;;18.37;12.30;;;-4.20;99.90;;;;;;4971698;28;20184;-69
2023/02/08 07:04:44;;;;;;;27.17;13.53;;;-4.20;99.90;;;;;;4969646;28;20204;-69
2023/02/08 07:07:10;;;;;;;22.20;14.70;;;-4.20;99.90;;;;;;4971789;28;20442;-68
2023/02/08 07:09:36;;;;;;;20.53;13.07;;;-4.10;99.90;;;;;;4972742;28;20475;-69
2023/02/08 07:12:03;;;;;;;14.40;11.30;;;-4.10;99.90;;;;;;4974020;28;20470;-68
2023/02/08 07:14:31;;;;;;;22.23;12.27;;;-4.00;99.90;;;;;;4972433;28;20601;-68
2023/02/08 07:16:56;;;;;;;18.20;13.20;;;-4.00;99.90;;;;;;4968635;28;20858;-68
2023/02/08 07:19:21;;;;;;;18.70;12.67;;;-3.90;99.90;;;;;;4970547;28;20534;-69
2023/02/08 07:21:47;;;;;;;25.23;14.40;;;-3.70;99.90;;;;;;4967777;28;20181;-68
2023/02/08 07:24:12;;;;;;;25.30;13.53;;;-3.40;99.90;;;;;;4974626;28;20186;-68
2023/02/08 07:26:38;;;;;;;19.63;13.13;;;-3.20;99.90;;;;;;4973467;28;20642;-68
2023/02/08 07:29:04;;;;;;;19.50;12.40;;;-2.90;99.90;;;;;;4973620;28;20200;-68
2023/02/08 07:31:29;;;;;;;19.70;12.60;;;-2.60;99.90;;;;;;4974284;28;20170;-69
2023/02/08 07:33:55;;;;;;;18.00;11.83;;;-2.30;99.90;;;;;;4974309;28;20204;-68
2023/02/08 07:36:20;;;;;;;17.77;13.30;;;-1.90;99.90;;;;;;4974193;28;20180;-69
2023/02/08 07:38:46;;;;;;;18.63;13.33;;;-1.60;99.90;;;;;;4973322;28;20196;-68
2023/02/08 07:41:13;;;;;;;17.30;12.87;;;-1.30;99.90;;;;;;4973915;28;20183;-69
2023/02/08 07:43:39;;;;;;;25.37;12.40;;;-1.10;99.90;;;;;;4974155;28;20179;-68
2023/02/08 07:46:11;;;;;;;28.33;15.97;;;-0.80;99.90;;;;;;4974052;28;20554;-68
2023/02/08 07:48:36;;;;;;;27.47;13.90;;;-0.50;99.90;;;;;;4973324;28;20440;-68
2023/02/08 07:51:02;;;;;;;23.37;14.97;;;-0.10;99.90;;;;;;4973966;28;20423;-69
2023/02/08 07:53:28;;;;;;;19.03;13.33;;;0.30;99.90;;;;;;4973971;28;20256;-68
2023/02/08 07:55:54;;;;;;;20.23;13.47;;;0.60;99.90;;;;;;4973754;28;20486;-69
2023/02/08 07:58:20;;;;;;;26.33;14.27;;;0.90;99.90;;;;;;4973264;28;20196;-69
2023/02/08 08:00:45;;;;;;;21.77;12.70;;;1.20;99.90;;;;;;4973893;28;20174;-68
2023/02/08 08:03:11;;;;;;;16.93;12.40;;;1.50;99.90;;;;;;4973847;28;20204;-68
2023/02/08 08:05:39;;;;;;;18.83;12.97;;;1.80;99.90;;;;;;4973691;28;20196;-68
2023/02/08 08:08:04;;;;;;;19.73;13.47;;;2.20;99.90;;;;;;4973577;28;20666;-68
2023/02/08 08:10:30;;;;;;;19.40;14.90;;;2.70;99.90;;;;;;4972984;28;20455;-68
2023/02/08 08:12:55;;;;;;;19.43;15.00;;;2.90;99.90;;;;;;4973696;28;20173;-69
2023/02/08 08:15:21;;;;;;;18.50;14.37;;;3.00;99.90;;;;;;4973665;28;20227;-66
2023/02/08 08:17:46;;;;;;;19.50;13.70;;;3.20;99.90;;;;;;4973442;28;20661;-66
2023/02/08 08:20:12;;;;;;;16.53;12.53;;;3.60;99.90;;;;;;4972943;28;20176;-68
2023/02/08 08:22:37;;;;;;;20.10;13.40;;;3.80;99.90;;;;;;4973628;28;20219;-67
2023/02/08 08:25:03;;;;;;;18.20;14.10;;;4.10;99.90;;;;;;4973408;28;20567;-67
2023/02/08 08:27:29;;;;;;;22.63;14.80;;;4.90;99.90;;;;;;4973538;28;20668;-66
2023/02/08 08:29:54;;;;;;;16.73;14.93;;;5.40;99.90;;;;;;4972794;28;20311;-66
2023/02/08 08:32:20;;;;;;;22.97;15.43;;;6.00;99.90;;;;;;4973138;28;20175;-66
2023/02/08 08:34:45;;;;;;;17.00;14.97;;;6.60;99.50;;;;;;4973421;28;20678;-66
2023/02/08 08:37:11;;;;;;;22.43;14.40;;;7.20;96.70;;;;;;4973299;28;20266;-66
2023/02/08 08:39:36;;;;;;;15.10;13.50;;;7.50;95.80;;;;;;4972565;28;20195;-66
2023/02/08 08:42:05;;;;;;;14.70;12.93;;;7.40;93.80;;;;;;4973231;28;20173;-66
2023/02/08 08:44:31;;;;;;;17.87;14.97;;;8.00;91.80;;;;;;4973248;28;20544;-66
2023/02/08 08:46:58;;;;;;;19.83;14.57;;;8.80;89.50;;;;;;4973271;28;20412;-67
2023/02/08 08:49:25;;;;;;;18.30;13.60;;;9.00;83.60;;;;;;4972586;28;20937;-67
2023/02/08 08:51:51;;;;;;;17.53;14.37;;;9.30;82.90;;;;;;4973304;28;20474;-67
2023/02/08 08:54:17;;;;;;;16.77;14.43;;;9.30;80.50;;;;;;4972804;28;20428;-67
2023/02/08 08:56:43;;;;;;;16.60;13.20;;;9.40;79.10;;;;;;4972899;28;20667;-66
2023/02/08 08:59:08;;;;;;;20.73;14.20;;;10.00;76.00;;;;;;4972182;28;20474;-67
2023/02/08 09:01:34;;;;;;;18.47;14.27;;;10.40;74.60;;;;;;4973136;28;20230;-66
2023/02/08 09:03:59;;;;;;;16.73;14.93;;;10.50;70.80;;;;;;4973264;28;20310;-67
2023/02/08 09:06:25;;;;;;;18.10;13.67;;;10.20;70.80;;;;;;4972692;28;20232;-66
2023/02/08 09:08:51;;;;;;;15.13;13.10;;;10.90;70.00;;;;;;4972195;28;20184;-67
2023/02/08 09:11:16;;;;;;;19.33;14.70;;;11.50;67.00;;;;;;4971565;28;20169;-66
2023/02/08 09:13:42;;;;;;;26.50;15.83;;;12.60;63.90;;;;;;4972975;28;20518;-67
2023/02/08 09:16:12;;;;;;;21.43;15.03;;;12.60;62.50;;;;;;4973164;28;20669;-66
2023/02/08 09:18:38;;;;;;;18.30;15.20;;;13.30;62.10;;;;;;4972453;28;20544;-67
2023/02/08 09:21:13;;;;;;;18.47;15.03;;;13.60;59.60;;;;;;4972972;28;20506;-67
2023/02/08 09:23:38;;;;;;;16.50;14.40;;;13.50;58.30;;;;;;4972877;28;20425;-66
2023/02/08 09:26:06;;;;;;;21.47;15.43;;;13.00;58.70;;;;;;4972890;28;20949;-66
2023/02/08 09:28:32;;;;;;;18.63;15.40;;;13.50;58.50;;;;;;4973972;28;20192;-67
2023/02/08 09:31:00;;;;;;;16.03;14.47;;;14.10;56.10;;;;;;4976554;28;20819;-67
2023/02/08 09:33:26;;;;;;;19.00;14.37;;;14.40;55.10;;;;;;4975197;28;20168;-67
2023/02/08 09:35:52;;;;;;;17.13;15.40;;;15.40;54.20;;;;;;4976343;28;20431;-67
2023/02/08 09:38:17;;;;;;;17.37;15.40;;;16.00;52.10;;;;;;4976110;28;20454;-67
2023/02/08 09:41:18;;;;;;;17.50;14.80;;;16.30;51.90;;;;;;4976461;28;20188;-67
2023/02/08 09:43:53;;;;;;;14.63;13.17;;;16.20;51.20;;;;;;4974181;28;20220;-67
2023/02/08 09:46:26;;;;;;;16.77;15.07;;;15.90;49.40;;;;;;4976172;28;20502;-67
2023/02/08 09:48:52;;;;;;;18.10;15.10;;;15.90;49.40;;;;;;4975926;28;20801;-67
2023/02/08 09:51:36;;;;;;;16.37;14.77;;;16.20;48.10;;;;;;4976194;28;20515;-67
2023/02/08 09:54:09;;;;;;;16.00;13.00;;;15.20;47.90;;;;;;4976268;28;20813;-67
2023/02/08 09:56:39;;;;;;;15.33;13.73;;;14.00;46.90;;;;;;4976041;28;20438;-67
2023/02/08 09:59:11;;;;;;;16.13;14.53;;;13.70;49.60;;;;;;4975539;28;20961;-67
2023/02/08 10:01:37;;;;;;;17.93;15.20;;;14.70;49.30;;;;;;4976133;28;20399;-67
2023/02/08 10:04:18;;;;;;;17.17;14.20;;;14.80;48.30;;;;;;4976117;28;20415;-67
2023/02/08 10:06:44;;;;;;;16.90;14.60;;;15.40;48.10;;;;;;4975888;28;20193;-67
2023/02/08 10:09:13;;;;;;;16.60;14.90;;;15.40;49.10;;;;;;4975447;28;20948;-67
2023/02/08 10:11:45;;;;;;;21.30;14.53;;;15.90;48.60;;;;;;4975916;28;20431;-67
2023/02/08 10:14:27;;;;;;;16.73;15.03;;;16.00;47.50;;;;;;4976120;28;20438;-69
2023/02/08 10:17:17;;;;;;;15.77;14.27;;;17.30;48.70;;;;;;4975948;28;20407;-67
2023/02/08 10:20:26;;;;;;;19.53;16.00;;;17.50;45.70;;;;;;4975208;28;20564;-67
2023/02/08 10:23:02;;;;;;;18.00;14.87;;;18.50;43.20;;;;;;4975737;28;20415;-67
2023/02/08 10:26:19;;;;;;;18.17;14.30;;;18.50;41.40;;;;;;4975550;28;20454;-68
2023/02/08 10:29:21;;;;;;;16.20;14.60;;;18.30;40.80;;;;;;4958052;28;20505;-67
2023/02/08 10:32:11;;;;;;;17.53;15.60;;;18.60;40.70;;;;;;4974577;28;20408;-67
2023/02/08 10:34:43;;;;;;;18.13;15.27;;;18.60;40.80;;;;;;4975444;28;20922;-67
2023/02/08 10:37:23;;;;;;;16.40;14.80;;;18.10;40.70;;;;;;4975335;28;20462;-67
2023/02/08 10:39:50;;;;;;;17.23;15.27;;;18.20;40.90;;;;;;4974867;28;20427;-68
2023/02/08 10:42:19;;;;;;;17.67;15.93;;;18.30;40.00;;;;;;4975518;28;20444;-67
2023/02/08 10:45:20;;;;;;;17.70;15.80;;;18.80;40.40;;;;;;4975235;28;20412;-67
2023/02/08 10:47:53;;;;;;;19.77;16.33;;;18.80;40.20;;;;;;4975253;28;20905;-67
2023/02/08 10:50:25;;;;;;;17.10;15.43;;;19.60;40.70;;;;;;4974683;28;20444;-67
2023/02/08 10:52:50;;;;;;;18.17;15.00;;;19.30;40.90;;;;;;4975163;28;20408;-67
2023/02/08 10:55:19;;;;;;;18.50;16.77;;;18.60;42.60;;;;;;4974961;28;20864;-68
2023/02/08 10:57:47;;;;;;;17.57;15.87;;;19.50;42.40;;;;;;4975396;28;20560;-67
2023/02/08 11:00:13;;;;;;;17.17;15.57;;;20.60;51.90;;;;;;4974492;28;20456;-67
2023/02/08 11:02:40;;;;;;;20.13;15.80;;;21.00;32.40;;;;;;4974974;28;20451;-67
2023/02/08 11:05:12;;;;;;;18.10;15.60;;;20.70;28.30;;;;;;4974783;28;20829;-67
2023/02/08 11:07:39;;;;;;;16.53;14.90;;;21.40;28.40;;;;;;4975051;28;20420;-67
2023/02/08 11:10:22;;;;;;;17.33;15.63;;;21.40;27.50;;;;;;4974240;28;20945;-67
2023/02/08 11:12:59;;;;;;;17.77;15.03;;;21.60;27.80;;;;;;4974773;28;20831;-67
2023/02/08 11:15:58;;;;;;;17.40;15.70;;;21.50;27.20;;;;;;4974645;28;20925;-67
2023/02/08 11:18:33;;;;;;;17.47;15.87;;;20.90;27.60;;;;;;4974116;28;20462;-67
2023/02/08 11:21:02;;;;;;;16.83;15.23;;;21.00;27.50;;;;;;4974758;28;20535;-67
2023/02/08 11:23:36;;;;;;;17.33;15.70;;;20.80;27.70;;;;;;4974558;28;20424;-67
2023/02/08 11:26:16;;;;;;;15.93;14.30;;;19.90;27.50;;;;;;4974409;28;20454;-67
2023/02/08 11:28:43;;;;;;;16.27;14.30;;;20.00;28.20;;;;;;4974003;28;20439;-67
2023/02/08 11:31:19;;;;;;;18.27;13.93;;;20.70;28.00;;;;;;4974425;28;20420;-67
2023/02/08 11:34:08;;;;;;;17.20;14.80;;;21.10;27.40;;;;;;4973406;28;20415;-67
2023/02/08 11:36:36;;;;;;;15.63;14.13;;;21.10;27.30;;;;;;4974364;28;20996;-67
2023/02/08 11:39:14;;;;;;;16.00;14.33;;;21.30;27.20;;;;;;4973635;28;20865;-67
2023/02/08 11:41:44;;;;;;;17.27;14.60;;;22.40;26.80;;;;;;4974334;28;20448;-68
2023/02/08 11:44:19;;;;;;;14.87;13.47;;;23.00;26.00;;;;;;4974043;28;20430;-67
2023/02/08 11:46:47;;;;;;;15.90;14.30;;;22.30;25.90;;;;;;4974392;28;20790;-67
2023/02/08 11:49:31;;;;;;;16.67;14.97;;;21.40;26.10;;;;;;4973500;28;20574;-67
2023/02/08 11:51:56;;;;;;;15.77;14.20;;;21.90;26.20;;;;;;4974172;28;20419;-68
2023/02/08 11:54:51;;;;;;;16.43;14.37;;;22.60;26.40;;;;;;4974429;28;20415;-67
2023/02/08 11:57:18;;;;;;;15.40;14.00;;;22.70;25.90;;;;;;4966272;28;20196;-67
2023/02/08 11:59:50;;;;;;;15.40;14.00;;;22.70;27.60;;;;;;4973656;28;20446;-67
2023/02/08 12:02:33;;;;;;;14.93;13.63;;;23.10;27.00;;;;;;4974913;28;20794;-67
2023/02/08 12:04:59;;;;;;;14.23;12.80;;;24.30;24.80;;;;;;4974294;28;20454;-67
2023/02/08 12:07:47;;;;;;;9.50;8.60;;;24.50;24.40;;;;;;4974158;28;20411;-67
2023/02/08 12:10:43;;;;;;;10.60;9.70;;;21.20;24.90;;;;;;4973871;28;20199;-67
2023/02/08 12:13:27;;;;;;;10.23;9.17;;;17.80;34.20;;;;;;4973756;28;20408;-67
2023/02/08 12:16:21;;;;;;;9.93;8.00;;;18.30;34.30;;;;;;4973787;28;20486;-67
2023/02/08 12:18:52;;;;;;;11.47;8.40;;;18.50;31.10;;;;;;4973110;28;20451;-67
2023/02/08 12:21:24;;;;;;;10.20;9.20;;;17.80;32.90;;;;;;4973585;28;20944;-67
2023/02/08 12:23:52;;;;;;;10.00;8.47;;;18.10;32.00;;;;;;4973560;28;20643;-67
2023/02/08 12:26:46;;;;;;;9.57;7.97;;;18.00;33.20;;;;;;4973385;28;20550;-67
2023/02/08 12:29:53;;;;;;;9.57;8.57;;;17.90;34.30;;;;;;4972890;28;20469;-66
2023/02/08 12:32:19;;;;;;;10.07;9.10;;;16.50;40.40;;;;;;4973009;28;20832;-67
2023/02/08 12:35:00;;;;;;;12.23;9.13;;;17.60;38.90;;;;;;4973608;28;20462;-67
2023/02/08 12:41:03;;;;;;;10.63;9.10;;;17.30;39.70;;;;;;4951668;29;20423;-67
2023/02/08 12:43:34;;;;;;;9.90;8.77;;;18.30;39.60;;;;;;4951641;29;20463;-67
2023/02/08 12:46:28;;;;;;;9.00;8.10;;;17.60;39.50;;;;;;4966123;28;20459;-67
2023/02/08 12:49:18;;;;;;;10.77;9.30;;;17.40;40.00;;;;;;4972482;28;20451;-67
2023/02/08 12:52:17;;;;;;;11.00;9.90;;;17.40;40.50;;;;;;4973110;28;20411;-67
2023/02/08 12:54:55;;;;;;;9.53;8.73;;;18.70;35.50;;;;;;4973026;28;20502;-67